Time;durP1;ratioP1;P1;durP2;ratioP2;P2;SDS_P1;SDS_P2;PMS_P1;PMS_P2;Temp;Humidity;BMP_temperature;BMP_pressure;BME280_temperature;BME280_humidity;BME280_pressure;Samples;Min_cycle;Max_cycle;Signal;HPM_P1;HPM_P2
2021/10/17 00:01:40;;;;;;;34.40;22.13;;;;;;;9.35;69.19;96984.50;5073167;28;20194;-67
2021/10/17 00:04:05;;;;;;;34.43;22.70;;;;;;;9.40;68.82;96981.41;5073978;28;20727;-67
2021/10/17 00:06:31;;;;;;;29.97;20.63;;;;;;;9.44;68.41;96982.78;5073690;28;20174;-69
2021/10/17 00:08:57;;;;;;;34.63;23.07;;;;;;;9.44;68.81;96980.16;5056864;28;20206;-67
2021/10/17 00:11:23;;;;;;;38.20;21.93;;;;;;;9.24;68.66;96982.09;5072673;28;20341;-66
2021/10/17 00:13:50;;;;;;;31.40;20.43;;;;;;;9.33;69.05;96986.44;5071726;28;20843;-69
2021/10/17 00:16:16;;;;;;;30.30;20.50;;;;;;;9.42;68.54;96990.75;5071814;28;20182;-66
2021/10/17 00:18:41;;;;;;;30.60;20.57;;;;;;;9.48;68.49;96981.47;5068185;28;20442;-68
2021/10/17 00:21:07;;;;;;;31.37;21.53;;;;;;;9.51;68.46;96983.81;5070813;28;20250;-67
2021/10/17 00:23:32;;;;;;;32.93;21.20;;;;;;;9.58;68.64;96984.81;5060500;28;20266;-68
2021/10/17 00:25:58;;;;;;;37.40;21.73;;;;;;;9.64;67.86;96986.03;5070724;28;20202;-68
2021/10/17 00:28:23;;;;;;;31.53;21.07;;;;;;;9.70;67.91;96987.22;5071281;28;20179;-68
2021/10/17 00:30:49;;;;;;;31.67;21.70;;;;;;;9.67;68.57;96983.94;5072594;28;20182;-68
2021/10/17 00:33:15;;;;;;;32.57;22.07;;;;;;;9.78;68.38;96980.25;5063985;28;20178;-68
2021/10/17 00:35:41;;;;;;;37.50;23.20;;;;;;;9.82;68.55;96965.88;5055858;28;20217;-68
2021/10/17 00:38:06;;;;;;;33.80;21.90;;;;;;;9.91;68.35;96966.75;5067303;28;20186;-68
2021/10/17 00:40:32;;;;;;;36.23;23.03;;;;;;;9.96;68.58;96967.09;5060834;28;20416;-68
2021/10/17 00:42:58;;;;;;;30.83;22.43;;;;;;;10.03;68.62;96976.97;5078838;28;20186;-68
2021/10/17 00:45:29;;;;;;;32.93;22.30;;;;;;;10.05;68.65;96973.22;5080769;28;20346;-68
2021/10/17 00:47:56;;;;;;;35.40;22.40;;;;;;;10.11;68.48;96963.91;5078283;28;20178;-67
2021/10/17 00:50:22;;;;;;;34.37;22.60;;;;;;;10.17;68.43;96972.94;5067184;28;20481;-68
2021/10/17 00:52:48;;;;;;;33.20;21.93;;;;;;;10.22;68.29;96971.50;5072849;28;20453;-69
2021/10/17 00:55:15;;;;;;;33.37;22.40;;;;;;;10.26;68.24;96967.63;5072516;28;20704;-69
2021/10/17 00:57:42;;;;;;;33.07;24.17;;;;;;;10.27;68.20;96958.78;5071873;28;20182;-67
2021/10/17 01:00:09;;;;;;;33.63;22.53;;;;;;;10.28;68.17;96963.03;5071789;28;20598;-69
2021/10/17 01:02:34;;;;;;;32.97;24.00;;;;;;;10.32;68.63;96960.13;5072291;28;20421;-69
2021/10/17 01:05:00;;;;;;;31.80;23.27;;;;;;;10.35;68.57;96960.63;5072047;28;20468;-68
2021/10/17 01:07:26;;;;;;;33.20;22.97;;;;;;;10.40;68.31;96954.94;5062675;28;20800;-67
2021/10/17 01:09:51;;;;;;;36.00;23.13;;;;;;;10.39;68.62;96956.75;5056112;28;20544;-66
2021/10/17 01:12:17;;;;;;;30.47;22.13;;;;;;;10.38;68.41;96954.28;5071855;28;20440;-67
2021/10/17 01:14:42;;;;;;;33.50;22.13;;;;;;;10.38;68.01;96964.75;5071664;28;20695;-67
2021/10/17 01:17:08;;;;;;;33.43;22.60;;;;;;;10.36;68.17;96957.03;5063538;28;20232;-66
2021/10/17 01:19:34;;;;;;;34.60;22.57;;;;;;;10.36;68.47;96953.56;5072056;28;20239;-68
2021/10/17 01:22:00;;;;;;;32.50;23.20;;;;;;;10.36;68.39;96957.03;5062393;28;20187;-67
2021/10/17 01:24:25;;;;;;;34.07;23.73;;;;;;;10.35;67.83;96944.91;5063217;28;20234;-68
2021/10/17 01:26:51;;;;;;;33.87;23.40;;;;;;;10.26;68.30;96936.19;5056182;28;20478;-68
2021/10/17 01:29:16;;;;;;;35.47;22.80;;;;;;;10.25;68.73;96945.00;5076467;28;20178;-67
2021/10/17 01:31:42;;;;;;;35.80;24.67;;;;;;;10.27;68.45;96939.63;5070070;28;20211;-68
2021/10/17 01:34:08;;;;;;;36.00;25.03;;;;;;;10.23;69.08;96941.72;5069345;28;20202;-67
2021/10/17 01:36:36;;;;;;;39.07;25.93;;;;;;;10.25;68.87;96934.53;5077481;28;20186;-68
2021/10/17 01:39:03;;;;;;;35.37;23.43;;;;;;;10.25;68.63;96939.78;5062115;28;20426;-69
2021/10/17 01:41:29;;;;;;;36.40;25.50;;;;;;;10.24;68.73;96932.91;5073950;28;20483;-67
2021/10/17 01:44:01;;;;;;;37.13;24.47;;;;;;;10.24;69.19;96940.75;5071592;28;20860;-66
2021/10/17 01:46:27;;;;;;;35.43;25.27;;;;;;;10.22;68.91;96928.78;5070277;28;20277;-66
2021/10/17 01:48:52;;;;;;;38.53;24.90;;;;;;;10.25;69.00;96939.78;5071115;28;20421;-67
2021/10/17 01:51:18;;;;;;;36.90;23.77;;;;;;;10.13;69.34;96935.78;5071284;28;20170;-66
2021/10/17 01:53:43;;;;;;;36.43;24.80;;;;;;;10.18;68.95;96928.28;5071271;28;20740;-67
2021/10/17 01:56:09;;;;;;;35.93;22.50;;;;;;;10.21;68.96;96933.19;5071173;28;20178;-67
2021/10/17 01:58:35;;;;;;;33.80;24.03;;;;;;;10.20;68.96;96926.34;5071126;28;20561;-67
2021/10/17 02:01:00;;;;;;;37.57;23.40;;;;;;;10.19;69.03;96932.56;5071072;28;20189;-67
2021/10/17 02:03:26;;;;;;;33.50;22.50;;;;;;;10.21;68.93;96933.19;5071525;28;20183;-68
2021/10/17 02:05:51;;;;;;;36.00;23.47;;;;;;;10.23;68.84;96933.06;5061542;28;20252;-67
2021/10/17 02:08:17;;;;;;;33.03;22.63;;;;;;;10.22;68.86;96924.38;5063392;28;20176;-67
2021/10/17 02:10:43;;;;;;;32.40;21.30;;;;;;;10.23;69.02;96923.38;5062805;28;20549;-67
2021/10/17 02:13:08;;;;;;;37.67;24.10;;;;;;;10.23;68.80;96925.22;5070623;28;20195;-67
2021/10/17 02:15:34;;;;;;;35.03;24.30;;;;;;;10.27;69.23;96929.16;5052712;28;20633;-68
2021/10/17 02:17:59;;;;;;;35.00;23.77;;;;;;;10.27;69.27;96924.72;5061547;28;20186;-67
2021/10/17 02:20:25;;;;;;;37.37;24.40;;;;;;;10.33;69.24;96922.47;5071130;28;20621;-66
2021/10/17 02:22:50;;;;;;;33.40;24.53;;;;;;;10.38;68.88;96928.06;5063279;28;20224;-69
2021/10/17 02:25:16;;;;;;;36.40;24.50;;;;;;;10.33;69.10;96919.84;5070775;28;20194;-69
2021/10/17 02:27:42;;;;;;;32.70;23.17;;;;;;;10.26;69.05;96915.22;5070187;28;20732;-67
2021/10/17 02:30:08;;;;;;;31.00;22.90;;;;;;;10.39;68.68;96916.63;5070715;28;20185;-67
2021/10/17 02:32:34;;;;;;;32.60;22.50;;;;;;;10.40;68.80;96918.25;5070744;28;20189;-68
2021/10/17 02:35:01;;;;;;;29.17;21.73;;;;;;;10.42;68.80;96918.94;5071851;28;21006;-67
2021/10/17 02:37:30;;;;;;;36.07;23.30;;;;;;;10.45;68.91;96913.38;5074561;28;20428;-68
2021/10/17 02:39:56;;;;;;;33.67;23.30;;;;;;;10.51;68.63;96904.06;5056985;28;20435;-67
2021/10/17 02:42:22;;;;;;;32.13;22.50;;;;;;;10.53;68.41;96908.16;5074189;28;20785;-68
2021/10/17 02:44:48;;;;;;;32.63;22.23;;;;;;;10.52;68.50;96918.81;5074371;28;20467;-67
2021/10/17 02:47:13;;;;;;;31.10;21.87;;;;;;;10.53;68.56;96916.03;5043338;28;20208;-68
2021/10/17 02:49:39;;;;;;;34.07;22.63;;;;;;;10.54;68.37;96912.41;5074406;28;20186;-68
2021/10/17 02:52:05;;;;;;;30.33;22.23;;;;;;;10.53;68.44;96905.53;5074542;28;20478;-67
2021/10/17 02:54:30;;;;;;;31.50;22.80;;;;;;;10.56;68.54;96915.72;5074145;28;20190;-67
2021/10/17 02:56:56;;;;;;;29.20;21.50;;;;;;;10.57;68.40;96917.34;5075629;28;20642;-68
2021/10/17 02:59:21;;;;;;;31.67;22.73;;;;;;;10.58;68.24;96907.66;5076397;28;20672;-68
2021/10/17 03:01:47;;;;;;;29.67;21.43;;;;;;;10.59;68.31;96909.31;5074441;28;20223;-67
2021/10/17 03:04:13;;;;;;;29.73;21.07;;;;;;;10.62;68.27;96913.41;5073957;28;20613;-67
2021/10/17 03:06:38;;;;;;;29.93;20.57;;;;;;;10.63;68.03;96915.06;5074087;28;20190;-68
2021/10/17 03:09:04;;;;;;;33.20;22.20;;;;;;;10.59;68.25;96920.59;5057578;28;20237;-68
2021/10/17 03:11:29;;;;;;;30.40;21.47;;;;;;;10.58;68.11;96912.91;5074227;28;20179;-67
2021/10/17 03:13:55;;;;;;;32.03;21.30;;;;;;;10.58;68.08;96924.22;5075383;28;20203;-67
2021/10/17 03:16:20;;;;;;;29.00;21.60;;;;;;;10.51;68.27;96907.50;5067391;28;20174;-67
2021/10/17 03:18:46;;;;;;;29.67;20.50;;;;;;;10.53;67.99;96915.19;5070852;28;20186;-67
2021/10/17 03:21:12;;;;;;;28.97;21.87;;;;;;;10.41;68.21;96906.81;5071377;28;20185;-68
2021/10/17 03:23:37;;;;;;;31.17;20.77;;;;;;;10.38;68.54;96902.72;5069008;28;20182;-67
2021/10/17 03:26:03;;;;;;;27.80;20.03;;;;;;;10.51;68.16;96904.06;5073717;28;20263;-68
2021/10/17 03:28:28;;;;;;;33.93;21.30;;;;;;;10.50;68.13;96899.78;5074964;28;20175;-66
2021/10/17 03:30:55;;;;;;;32.57;21.43;;;;;;;10.49;68.11;96892.91;5076505;28;20206;-67
2021/10/17 03:33:22;;;;;;;30.40;21.77;;;;;;;10.53;67.81;96896.84;5077462;28;20200;-67
2021/10/17 03:35:47;;;;;;;29.80;20.20;;;;;;;10.45;67.97;96897.66;5069220;28;20459;-69
2021/10/17 03:38:13;;;;;;;28.03;20.67;;;;;;;10.45;67.76;96906.31;5070309;28;20505;-67
2021/10/17 03:40:38;;;;;;;28.20;21.20;;;;;;;10.47;67.75;96906.16;5068908;28;20561;-67
2021/10/17 03:43:04;;;;;;;24.60;18.53;;;;;;;10.49;67.39;96903.41;5073860;28;20182;-67
2021/10/17 03:45:30;;;;;;;29.70;20.57;;;;;;;10.47;67.62;96900.09;5073645;28;20209;-67
2021/10/17 03:47:57;;;;;;;27.33;19.90;;;;;;;10.44;67.72;96903.88;5068178;28;20544;-67
2021/10/17 03:50:23;;;;;;;29.47;19.70;;;;;;;10.44;67.90;96906.50;5073266;28;20483;-67
2021/10/17 03:52:48;;;;;;;24.23;18.53;;;;;;;10.42;67.73;96908.44;5073129;28;20421;-68
2021/10/17 03:55:14;;;;;;;29.47;20.87;;;;;;;10.37;68.00;96905.44;5073100;28;20433;-67
2021/10/17 03:57:40;;;;;;;30.60;20.37;;;;;;;10.30;68.41;96906.09;5050866;28;20176;-68
2021/10/17 04:00:06;;;;;;;32.00;21.17;;;;;;;10.33;68.23;96901.50;5066765;28;20178;-67
2021/10/17 04:02:34;;;;;;;31.10;22.00;;;;;;;10.29;68.49;96899.22;5053058;28;20585;-68
2021/10/17 04:04:59;;;;;;;30.83;21.80;;;;;;;10.23;68.69;96909.50;5060548;28;20873;-68
2021/10/17 04:07:25;;;;;;;29.23;21.43;;;;;;;10.20;68.67;96902.78;5052288;28;20418;-68
2021/10/17 04:09:50;;;;;;;30.87;22.13;;;;;;;10.22;68.95;96903.41;5053028;28;20180;-67
2021/10/17 04:12:16;;;;;;;32.37;21.50;;;;;;;10.29;68.69;96901.00;5052892;28;20273;-68
2021/10/17 04:14:41;;;;;;;29.13;21.23;;;;;;;10.30;68.61;96895.59;5052820;28;20195;-68
2021/10/17 04:17:07;;;;;;;31.67;21.20;;;;;;;10.25;68.87;96895.25;5052419;28;20974;-68
2021/10/17 04:19:32;;;;;;;29.03;20.80;;;;;;;10.25;68.66;96903.09;5058843;28;20179;-68
2021/10/17 04:21:58;;;;;;;27.00;20.33;;;;;;;10.27;68.71;96898.53;5061731;28;20228;-67
2021/10/17 04:24:24;;;;;;;30.97;20.93;;;;;;;10.27;68.58;96901.16;5052517;28;20199;-69
2021/10/17 04:26:49;;;;;;;32.63;21.80;;;;;;;10.23;68.47;96897.19;5052273;28;20274;-67
2021/10/17 04:29:15;;;;;;;31.80;22.50;;;;;;;10.23;68.72;96899.81;5054843;28;20277;-67
2021/10/17 04:31:40;;;;;;;29.57;21.40;;;;;;;10.23;68.60;96893.78;5064804;28;20270;-68
2021/10/17 04:34:06;;;;;;;33.03;22.20;;;;;;;10.21;68.86;96899.16;5051646;28;20199;-68
2021/10/17 04:36:31;;;;;;;33.23;21.80;;;;;;;10.26;68.65;96906.56;5055041;28;20283;-67
2021/10/17 04:38:58;;;;;;;28.53;20.43;;;;;;;10.23;68.66;96901.63;5052635;28;20186;-67
2021/10/17 04:41:23;;;;;;;33.10;22.73;;;;;;;10.21;68.51;96899.16;5056160;28;20202;-67
2021/10/17 04:43:49;;;;;;;31.57;22.33;;;;;;;10.24;68.46;96904.09;5063449;28;20420;-68
2021/10/17 04:46:15;;;;;;;29.57;21.47;;;;;;;10.27;68.37;96898.53;5046548;28;20234;-66
2021/10/17 04:48:40;;;;;;;31.43;21.50;;;;;;;10.22;68.55;96892.94;5050134;28;20222;-67
2021/10/17 04:51:06;;;;;;;28.30;22.00;;;;;;;10.18;68.82;96896.88;5052014;28;20289;-66
2021/10/17 04:53:31;;;;;;;32.80;21.80;;;;;;;10.22;68.50;96894.75;5060698;28;20252;-68
2021/10/17 04:55:57;;;;;;;32.40;22.60;;;;;;;10.22;68.73;96887.69;5052089;28;20268;-67
2021/10/17 04:58:25;;;;;;;32.63;22.63;;;;;;;10.21;68.86;96893.91;5050907;28;20175;-67
2021/10/17 05:00:51;;;;;;;27.57;20.33;;;;;;;10.22;68.81;96890.31;5051730;28;20224;-67
2021/10/17 05:03:17;;;;;;;32.77;20.80;;;;;;;10.18;68.48;96891.63;5051657;28;20504;-67
2021/10/17 05:05:42;;;;;;;33.90;22.40;;;;;;;10.13;68.48;96889.50;5051581;28;20232;-67
2021/10/17 05:08:08;;;;;;;31.37;22.60;;;;;;;10.11;69.08;96886.19;5051179;28;20267;-67
2021/10/17 05:10:34;;;;;;;31.23;21.87;;;;;;;10.08;68.75;96886.50;5057949;28;20170;-66
2021/10/17 05:13:00;;;;;;;31.17;21.70;;;;;;;10.08;68.87;96889.13;5054766;28;20191;-67
2021/10/17 05:15:25;;;;;;;35.20;22.13;;;;;;;10.09;68.73;96895.16;5058043;28;20437;-67
2021/10/17 05:17:51;;;;;;;31.67;21.63;;;;;;;10.05;68.77;96891.25;5050871;28;20175;-67
2021/10/17 05:20:17;;;;;;;30.70;20.40;;;;;;;9.98;68.53;96891.84;5051673;28;20236;-67
2021/10/17 05:22:42;;;;;;;31.70;21.30;;;;;;;9.95;68.61;96886.13;5058441;28;20536;-68
2021/10/17 05:25:08;;;;;;;35.03;21.43;;;;;;;9.90;68.87;96894.44;5051076;28;20256;-66
2021/10/17 05:27:34;;;;;;;32.90;23.90;;;;;;;9.87;68.96;96884.28;5050149;28;20183;-66
2021/10/17 05:29:59;;;;;;;32.37;22.23;;;;;;;9.84;69.00;96884.56;5051090;28;20183;-67
2021/10/17 05:32:25;;;;;;;32.10;21.90;;;;;;;9.81;69.10;96880.47;5059385;28;20179;-68
2021/10/17 05:34:50;;;;;;;32.70;23.60;;;;;;;9.80;69.36;96883.28;5051216;28;20231;-66
2021/10/17 05:37:16;;;;;;;34.00;23.40;;;;;;;9.78;69.30;96885.22;5051361;28;20546;-67
2021/10/17 05:39:42;;;;;;;30.63;21.43;;;;;;;9.73;69.00;96877.84;5051505;28;20175;-68
2021/10/17 05:42:07;;;;;;;30.73;22.53;;;;;;;9.70;69.26;96887.78;5050953;28;20186;-68
2021/10/17 05:44:33;;;;;;;32.90;21.43;;;;;;;9.64;69.04;96884.00;5050807;28;20234;-67
2021/10/17 05:46:58;;;;;;;30.77;21.87;;;;;;;9.61;69.10;96889.53;5050480;28;20198;-67
2021/10/17 05:49:24;;;;;;;27.80;19.90;;;;;;;9.57;69.24;96891.66;5050754;28;20649;-67
2021/10/17 05:51:50;;;;;;;27.30;20.70;;;;;;;9.54;69.50;96884.09;5050941;28;20187;-67
2021/10/17 05:54:15;;;;;;;24.73;18.37;;;;;;;9.52;68.89;96886.84;5059073;28;20190;-67
2021/10/17 05:56:41;;;;;;;29.20;19.77;;;;;;;9.48;69.13;96893.38;5050477;28;20187;-67
2021/10/17 05:59:09;;;;;;;26.97;19.50;;;;;;;9.46;68.51;96899.72;5047098;28;20639;-69
2021/10/17 06:01:35;;;;;;;25.90;18.53;;;;;;;9.46;68.99;96910.19;5048938;28;20175;-67
2021/10/17 06:04:02;;;;;;;26.10;19.30;;;;;;;9.47;69.02;96909.19;5050470;28;21000;-68
2021/10/17 06:06:27;;;;;;;25.07;18.80;;;;;;;9.49;68.77;96909.88;5050374;28;20416;-68
2021/10/17 06:08:55;;;;;;;25.73;20.27;;;;;;;9.50;68.84;96911.53;5057081;28;20424;-67
2021/10/17 06:11:20;;;;;;;28.10;19.77;;;;;;;9.50;68.61;96914.13;5070321;28;20179;-67
2021/10/17 06:13:46;;;;;;;30.40;20.67;;;;;;;9.55;68.93;96911.91;5070728;28;20419;-66
2021/10/17 06:16:11;;;;;;;26.70;20.40;;;;;;;9.64;68.75;96925.88;5068975;28;20171;-68
2021/10/17 06:18:37;;;;;;;27.60;19.83;;;;;;;9.71;69.00;96920.81;5065424;28;20257;-67
2021/10/17 06:21:05;;;;;;;25.17;20.00;;;;;;;9.75;68.93;96927.38;5069785;28;20182;-67
2021/10/17 06:23:31;;;;;;;25.03;18.30;;;;;;;9.77;68.60;96936.72;5064999;28;20535;-66
2021/10/17 06:25:57;;;;;;;31.67;19.80;;;;;;;9.84;68.76;96942.16;5070562;28;20456;-68
2021/10/17 06:28:22;;;;;;;30.13;19.87;;;;;;;9.88;68.50;96940.88;5070416;28;20645;-67
2021/10/17 06:30:48;;;;;;;28.10;21.40;;;;;;;9.90;68.09;96945.97;5054628;28;20194;-68
2021/10/17 06:33:14;;;;;;;28.93;21.50;;;;;;;9.94;68.27;96948.13;5054999;28;20660;-67
2021/10/17 06:35:39;;;;;;;26.73;19.37;;;;;;;9.99;68.27;96952.91;5074749;28;20265;-68
2021/10/17 06:38:05;;;;;;;28.53;20.47;;;;;;;10.03;68.16;96956.84;5059814;28;20278;-67
2021/10/17 06:40:30;;;;;;;26.60;19.87;;;;;;;10.06;68.09;96955.72;5063516;28;20187;-69
2021/10/17 06:42:57;;;;;;;26.50;19.43;;;;;;;10.03;68.21;96950.78;5067849;28;20178;-68
2021/10/17 06:45:22;;;;;;;30.47;20.50;;;;;;;10.01;67.80;96956.19;5070266;28;20320;-67
2021/10/17 06:47:48;;;;;;;31.80;21.90;;;;;;;10.09;67.85;96960.63;5070302;28;20431;-67
2021/10/17 06:50:17;;;;;;;31.73;21.60;;;;;;;10.15;67.77;96947.75;5054355;28;20656;-67
2021/10/17 06:52:43;;;;;;;35.27;22.87;;;;;;;10.20;68.27;96959.56;5070354;28;20750;-68
2021/10/17 06:55:09;;;;;;;38.10;26.07;;;;;;;10.22;67.79;96949.75;5069231;28;20696;-67
2021/10/17 06:57:35;;;;;;;37.77;26.17;;;;;;;10.25;67.46;96955.50;5069613;28;20432;-68
2021/10/17 07:00:01;;;;;;;37.13;25.50;;;;;;;10.38;67.78;96957.72;5070128;28;20543;-66
2021/10/17 07:02:26;;;;;;;34.90;25.20;;;;;;;10.47;67.24;96963.78;5070217;28;20174;-67
2021/10/17 07:04:52;;;;;;;33.40;23.80;;;;;;;10.48;67.51;96964.63;5070262;28;20202;-67
2021/10/17 07:07:17;;;;;;;32.27;22.83;;;;;;;10.58;67.33;96978.44;5067573;28;20712;-67
2021/10/17 07:09:43;;;;;;;30.97;23.20;;;;;;;10.58;67.26;96974.03;5061058;28;20188;-67
2021/10/17 07:12:08;;;;;;;31.43;22.30;;;;;;;10.62;67.15;96977.13;5070553;28;20193;-68
2021/10/17 07:14:34;;;;;;;28.67;21.77;;;;;;;10.48;67.36;96973.31;5070607;28;20685;-67
2021/10/17 07:17:00;;;;;;;31.37;22.37;;;;;;;10.53;67.71;96983.31;5064932;28;20175;-67
2021/10/17 07:19:25;;;;;;;27.50;19.93;;;;;;;10.74;67.33;96983.75;5069910;28;20316;-67
2021/10/17 07:21:51;;;;;;;26.63;20.60;;;;;;;10.76;67.52;96988.81;5065191;28;20558;-68
2021/10/17 07:24:16;;;;;;;31.30;21.67;;;;;;;10.75;67.27;96982.75;5073730;28;20267;-69
2021/10/17 07:26:42;;;;;;;27.40;20.33;;;;;;;10.83;67.36;96987.22;5066563;28;20183;-67
2021/10/17 07:29:07;;;;;;;29.57;21.40;;;;;;;10.87;67.44;96985.09;5072561;28;20273;-67
2021/10/17 07:31:33;;;;;;;30.97;20.13;;;;;;;10.87;67.60;96978.03;5073758;28;20589;-69
2021/10/17 07:33:58;;;;;;;35.70;23.63;;;;;;;10.85;67.51;96979.97;5073434;28;20202;-66
2021/10/17 07:36:25;;;;;;;31.10;22.27;;;;;;;11.18;67.12;96981.88;5073472;28;20190;-68
2021/10/17 07:38:50;;;;;;;29.83;20.40;;;;;;;11.42;66.53;96978.47;5062161;28;20223;-69
2021/10/17 07:41:16;;;;;;;32.30;20.27;;;;;;;11.50;65.70;96985.53;5072312;28;20431;-67
2021/10/17 07:43:42;;;;;;;27.47;20.37;;;;;;;11.56;65.72;96981.41;5071897;28;20186;-68
2021/10/17 07:46:07;;;;;;;27.47;20.13;;;;;;;11.57;65.53;96986.50;5073625;28;20206;-68
2021/10/17 07:48:36;;;;;;;30.23;20.50;;;;;;;11.62;65.57;96989.47;5073415;28;20183;-67
2021/10/17 07:51:03;;;;;;;25.10;19.60;;;;;;;11.56;65.42;96986.66;5073568;28;20247;-67
2021/10/17 07:53:29;;;;;;;25.70;19.60;;;;;;;11.74;65.37;96987.31;5073318;28;20856;-67
2021/10/17 07:55:55;;;;;;;23.13;19.50;;;;;;;11.93;64.84;96993.22;5070779;28;20438;-67
2021/10/17 07:58:20;;;;;;;25.00;18.73;;;;;;;11.96;64.78;96995.50;5066751;28;20182;-68
2021/10/17 08:00:46;;;;;;;23.10;17.60;;;;;;;12.17;64.38;96992.38;5072933;28;20182;-67
2021/10/17 08:03:11;;;;;;;23.53;18.70;;;;;;;12.24;64.13;96989.88;5065196;28;20348;-68
2021/10/17 08:05:37;;;;;;;23.33;18.10;;;;;;;12.38;63.48;96997.09;5073478;28;20216;-67
2021/10/17 08:08:03;;;;;;;25.33;18.47;;;;;;;12.46;63.06;96998.06;5062122;28;20233;-68
2021/10/17 08:10:29;;;;;;;23.97;18.43;;;;;;;12.52;63.11;96998.22;5073911;28;20205;-68
2021/10/17 08:12:54;;;;;;;21.80;17.33;;;;;;;12.61;62.41;97001.59;5075214;28;20429;-68
2021/10/17 08:15:20;;;;;;;26.10;18.67;;;;;;;12.51;62.49;97001.00;5073189;28;20193;-67
2021/10/17 08:17:45;;;;;;;28.90;18.60;;;;;;;12.44;63.05;97004.31;5067399;28;20205;-66
2021/10/17 08:20:11;;;;;;;23.97;18.77;;;;;;;12.58;63.33;96999.34;5072554;28;20197;-67
2021/10/17 08:22:37;;;;;;;24.53;19.30;;;;;;;12.33;63.76;96999.41;5065875;28;20182;-66
2021/10/17 08:25:04;;;;;;;25.13;19.40;;;;;;;12.53;62.98;97001.63;5073466;28;20230;-67
2021/10/17 08:27:30;;;;;;;23.23;17.80;;;;;;;12.58;63.12;97007.22;5078977;28;20193;-67
2021/10/17 08:29:55;;;;;;;23.70;18.30;;;;;;;12.58;63.27;97004.59;5077907;28;20783;-69
2021/10/17 08:32:21;;;;;;;25.50;19.03;;;;;;;12.44;63.56;97001.69;5076918;28;20186;-67
2021/10/17 08:34:46;;;;;;;22.80;18.20;;;;;;;12.62;63.25;97003.25;5072905;28;20206;-66
2021/10/17 08:37:12;;;;;;;23.70;18.80;;;;;;;12.66;63.22;97001.91;5071601;28;20186;-69
2021/10/17 08:39:38;;;;;;;21.40;17.23;;;;;;;12.84;62.68;97000.88;5064016;28;20194;-68
2021/10/17 08:42:04;;;;;;;23.50;18.87;;;;;;;12.65;62.85;97005.53;5073708;28;20286;-68
2021/10/17 08:44:30;;;;;;;22.63;17.93;;;;;;;12.75;63.38;97002.72;5079433;28;20449;-67
2021/10/17 08:46:59;;;;;;;25.40;19.40;;;;;;;12.70;63.01;97007.66;5082310;28;20716;-67
2021/10/17 08:49:27;;;;;;;26.67;20.27;;;;;;;12.82;62.93;97008.09;5067005;28;20600;-67
2021/10/17 08:51:52;;;;;;;24.70;19.30;;;;;;;12.81;62.84;97002.00;5064994;28;20717;-68
2021/10/17 08:54:18;;;;;;;25.97;19.50;;;;;;;12.90;62.43;97005.44;5074593;28;20531;-69
2021/10/17 08:56:43;;;;;;;23.83;18.60;;;;;;;13.04;62.49;97014.44;5082013;28;20739;-68
2021/10/17 08:59:09;;;;;;;25.23;18.87;;;;;;;12.63;62.83;97009.34;5078328;28;20185;-68
2021/10/17 09:01:36;;;;;;;23.60;19.10;;;;;;;12.90;61.47;97008.91;5081960;28;20189;-68
2021/10/17 09:04:03;;;;;;;24.87;20.23;;;;;;;11.98;64.89;97014.56;5065517;28;20222;-69
2021/10/17 09:06:36;;;;;;;26.00;19.23;;;;;;;11.22;67.73;97020.72;5058012;28;20765;-67
2021/10/17 09:09:10;;;;;;;28.73;18.40;;;;;;;12.51;64.68;97012.34;5061947;28;20435;-68
2021/10/17 09:11:40;;;;;;;24.10;19.20;;;;;;;13.01;62.77;96999.78;5067959;28;20422;-66
2021/10/17 09:14:07;;;;;;;25.00;18.03;;;;;;;13.31;61.07;97013.09;5068633;28;20501;-67
2021/10/17 09:16:35;;;;;;;22.20;17.87;;;;;;;13.37;60.71;97008.97;5063388;28;20425;-66
2021/10/17 09:19:14;;;;;;;25.63;18.73;;;;;;;13.51;60.36;97008.22;5068596;28;20836;-66
2021/10/17 09:22:09;;;;;;;24.10;19.30;;;;;;;13.55;60.34;96992.91;5065635;28;20425;-68
2021/10/17 09:24:47;;;;;;;24.13;18.47;;;;;;;13.77;59.50;97003.59;5066432;28;20470;-68
2021/10/17 09:27:18;;;;;;;24.10;18.50;;;;;;;13.07;61.87;97006.16;5071167;28;20515;-67
2021/10/17 09:29:51;;;;;;;28.10;19.37;;;;;;;12.42;63.99;96998.41;5063350;28;20421;-67
2021/10/17 09:32:22;;;;;;;26.40;19.40;;;;;;;13.39;61.57;97000.88;5033152;28;21527;-68
2021/10/17 09:35:06;;;;;;;26.03;18.83;;;;;;;13.46;61.42;96989.50;5040384;28;20432;-67
2021/10/17 09:37:34;;;;;;;27.57;20.37;;;;;;;12.90;62.98;96987.84;5042876;28;20442;-67
2021/10/17 09:40:01;;;;;;;25.47;18.40;;;;;;;13.69;60.78;96995.75;5069329;28;20427;-67
2021/10/17 09:42:27;;;;;;;22.03;17.40;;;;;;;14.24;58.92;96984.03;5059498;28;21392;-66
2021/10/17 09:44:52;;;;;;;20.47;17.00;;;;;;;14.59;57.82;96986.13;5034653;28;20462;-66
2021/10/17 09:47:18;;;;;;;24.13;19.83;;;;;;;13.88;59.16;96989.19;5070421;28;20200;-67
2021/10/17 09:49:47;;;;;;;23.03;18.60;;;;;;;14.36;58.48;96988.88;5063279;28;20213;-67
2021/10/17 09:52:23;;;;;;;25.17;18.10;;;;;;;14.78;56.71;96987.41;5070219;28;20178;-67
2021/10/17 09:54:50;;;;;;;25.97;17.70;;;;;;;14.05;59.10;96984.56;5059084;28;20431;-67
2021/10/17 09:57:17;;;;;;;21.70;17.37;;;;;;;14.13;58.96;96982.69;5055403;28;20452;-68
2021/10/17 09:59:42;;;;;;;21.30;16.70;;;;;;;14.22;58.47;96983.41;5071734;28;20935;-66
2021/10/17 10:02:09;;;;;;;20.63;16.80;;;;;;;13.94;59.41;96984.00;5068225;28;20452;-69
2021/10/17 10:04:40;;;;;;;23.00;17.80;;;;;;;14.57;56.83;96978.41;5069919;28;20229;-67
2021/10/17 10:07:08;;;;;;;21.03;17.63;;;;;;;14.51;57.35;96971.22;5071125;28;20417;-65
2021/10/17 10:09:34;;;;;;;23.80;17.17;;;;;;;14.71;56.75;96974.13;5053303;28;20429;-65
2021/10/17 10:12:02;;;;;;;23.60;18.63;;;;;;;14.55;57.01;96975.13;5059400;28;20413;-66
2021/10/17 10:14:27;;;;;;;24.90;18.00;;;;;;;14.90;56.21;96967.47;5070903;28;20198;-66
2021/10/17 10:16:56;;;;;;;23.03;18.30;;;;;;;13.91;58.80;96979.09;5063011;28;20421;-68
2021/10/17 10:19:22;;;;;;;21.57;17.70;;;;;;;14.25;57.58;96975.13;5071568;28;20257;-68
2021/10/17 10:21:49;;;;;;;21.23;17.77;;;;;;;13.15;61.19;96984.25;5063195;28;20449;-68
2021/10/17 10:24:16;;;;;;;23.70;18.93;;;;;;;13.39;61.00;96985.91;5051137;28;20599;-66
2021/10/17 10:26:42;;;;;;;23.03;18.00;;;;;;;13.34;60.81;96983.81;5052536;28;20431;-66
2021/10/17 10:29:08;;;;;;;23.70;18.97;;;;;;;13.34;60.64;96980.34;5052579;28;20421;-68
2021/10/17 10:31:51;;;;;;;24.23;18.47;;;;;;;14.11;58.41;96978.59;5070612;28;20420;-67
2021/10/17 10:34:22;;;;;;;28.10;20.40;;;;;;;13.87;59.23;96983.06;5053745;28;20194;-66
2021/10/17 10:36:52;;;;;;;23.20;17.90;;;;;;;14.62;57.17;96977.06;5070805;28;20861;-67
2021/10/17 10:39:21;;;;;;;25.20;19.20;;;;;;;14.06;59.04;96975.66;5059539;28;20409;-69
2021/10/17 10:41:49;;;;;;;23.90;17.67;;;;;;;14.08;58.63;96984.22;5070645;28;20424;-67
2021/10/17 10:44:16;;;;;;;23.30;18.10;;;;;;;14.14;59.02;96978.22;5038758;28;20437;-71
2021/10/17 10:46:43;;;;;;;23.27;19.00;;;;;;;13.01;61.60;96977.94;5070769;28;20455;-66
2021/10/17 10:49:08;;;;;;;23.37;18.17;;;;;;;13.60;60.79;96982.66;5070206;28;20417;-68
2021/10/17 10:51:46;;;;;;;24.50;17.87;;;;;;;14.07;59.35;96983.38;5061592;28;20420;-66
2021/10/17 10:54:21;;;;;;;28.97;18.87;;;;;;;14.63;57.86;96979.50;5062422;28;20281;-66
2021/10/17 10:56:49;;;;;;;21.80;17.70;;;;;;;14.51;58.02;96979.13;5073156;28;20835;-66
2021/10/17 10:59:17;;;;;;;25.17;19.40;;;;;;;14.89;56.92;96978.22;5058235;28;20462;-66
2021/10/17 11:02:02;;;;;;;25.83;19.30;;;;;;;13.80;60.26;96985.59;5066619;28;20444;-67
2021/10/17 11:04:37;;;;;;;25.60;18.50;;;;;;;14.52;58.37;96978.13;5056093;28;20517;-67
2021/10/17 11:07:22;;;;;;;24.60;18.70;;;;;;;14.19;59.87;96972.41;5064337;28;20801;-66
2021/10/17 11:09:49;;;;;;;24.13;18.73;;;;;;;14.88;57.87;96973.94;5066759;28;20933;-67
2021/10/17 11:12:39;;;;;;;24.50;18.87;;;;;;;15.11;57.43;96976.44;5052743;28;20935;-66
2021/10/17 11:15:09;;;;;;;22.40;18.23;;;;;;;15.49;55.89;96975.38;5052725;28;20540;-66
2021/10/17 11:17:35;;;;;;;22.77;18.13;;;;;;;15.54;55.03;96966.88;5062803;28;20913;-65